createdAt,value
2022-10-09T00:00:10.604Z,16.04
2022-10-09T00:05:15.815Z,16.14
2022-10-09T00:10:19.138Z,16.13
2022-10-09T00:15:21.411Z,16.18
2022-10-09T00:20:28.076Z,16.10
2022-10-09T00:25:40.334Z,16.06
2022-10-09T00:30:43.238Z,16.05
2022-10-09T00:35:48.769Z,16.09
2022-10-09T00:40:53.304Z,16.07
2022-10-09T00:45:58.639Z,16.03
2022-10-09T00:51:03.295Z,16.00
2022-10-09T00:56:06.792Z,15.96
2022-10-09T01:06:54.926Z,15.99
2022-10-09T01:12:19.031Z,16.01
2022-10-09T01:17:26.440Z,15.98
2022-10-09T01:22:46.693Z,15.95
2022-10-09T01:27:49.659Z,15.95
2022-10-09T01:32:55.280Z,15.97
2022-10-09T01:43:14.045Z,15.89
2022-10-09T01:48:27.570Z,15.89
2022-10-09T01:53:30.274Z,15.93
2022-10-09T01:58:49.881Z,15.94
2022-10-09T02:03:55.205Z,16.07
2022-10-09T02:08:58.770Z,16.05
2022-10-09T02:14:01.108Z,16.14
2022-10-09T02:19:06.396Z,16.22
2022-10-09T02:24:16.462Z,16.23
2022-10-09T02:29:18.816Z,16.23
2022-10-09T02:34:29.447Z,16.32
2022-10-09T02:39:31.818Z,16.43
2022-10-09T02:44:34.815Z,16.49
2022-10-09T02:49:40.555Z,16.44
2022-10-09T02:54:43.757Z,16.58
2022-10-09T02:59:46.015Z,16.54
2022-10-09T03:04:48.252Z,16.54
2022-10-09T03:09:53.003Z,16.55
2022-10-09T03:15:00.046Z,16.48
2022-10-09T03:20:02.310Z,16.37
2022-10-09T03:25:04.768Z,16.37
2022-10-09T03:30:07.362Z,16.29
2022-10-09T03:35:09.727Z,16.23
2022-10-09T03:40:12.351Z,16.18
2022-10-09T03:45:20.307Z,16.07
2022-10-09T03:55:49.843Z,16.01
2022-10-09T04:00:54.359Z,15.98
2022-10-09T04:05:56.666Z,15.92
2022-10-09T04:11:01.273Z,15.86
2022-10-09T04:16:05.597Z,15.81
2022-10-09T04:21:09.555Z,15.74
2022-10-09T04:26:15.239Z,15.76
2022-10-09T04:31:22.595Z,15.69
2022-10-09T04:36:31.544Z,15.65
2022-10-09T04:41:39.721Z,15.63
2022-10-09T04:46:42.084Z,15.63
2022-10-09T04:51:49.510Z,15.53
2022-10-09T04:56:51.694Z,15.52
2022-10-09T05:01:54.412Z,15.58
2022-10-09T05:12:13.855Z,15.61
2022-10-09T05:17:17.940Z,15.60
2022-10-09T05:22:22.957Z,15.60
2022-10-09T05:27:25.229Z,15.62
2022-10-09T05:32:28.343Z,15.64
2022-10-09T05:37:33.493Z,15.74
2022-10-09T05:42:37.382Z,15.86
2022-10-09T05:47:49.776Z,15.90
2022-10-09T05:52:52.812Z,16.02
2022-10-09T05:57:55.077Z,16.25
2022-10-09T06:03:00.516Z,16.25
2022-10-09T06:08:14.503Z,16.37
2022-10-09T06:13:16.879Z,16.33
2022-10-09T06:18:19.222Z,16.77
2022-10-09T06:23:24.415Z,17.13
2022-10-09T06:28:28.345Z,17.25
2022-10-09T06:33:43.163Z,17.37
2022-10-09T06:38:49.303Z,17.71
2022-10-09T06:43:59.812Z,18.03
2022-10-09T06:49:08.419Z,18.22
2022-10-09T06:54:14.151Z,18.46
2022-10-09T06:59:16.454Z,18.63
2022-10-09T07:04:22.177Z,18.94
2022-10-09T07:09:30.267Z,19.16
2022-10-09T07:14:32.529Z,19.58
2022-10-09T07:19:35.275Z,19.41
2022-10-09T07:24:37.807Z,19.35
2022-10-09T07:29:46.318Z,19.63
2022-10-09T07:34:50.767Z,19.73
2022-10-09T07:39:57.358Z,19.67
2022-10-09T07:44:59.600Z,20.14
2022-10-09T07:50:06.046Z,20.17
2022-10-09T07:55:09.873Z,20.37
2022-10-09T08:00:16.306Z,20.34
2022-10-09T08:05:22.561Z,20.42
2022-10-09T08:10:28.089Z,21.16
2022-10-09T08:15:37.314Z,21.08
2022-10-09T08:20:43.805Z,20.80
2022-10-09T08:25:47.709Z,20.94
2022-10-09T08:30:49.983Z,20.76
2022-10-09T08:35:52.600Z,20.88
2022-10-09T08:41:04.979Z,21.34
2022-10-09T08:46:20.755Z,21.53
2022-10-09T08:51:25.167Z,21.54
2022-10-09T08:56:36.429Z,21.89
2022-10-09T09:01:48.440Z,21.99
2022-10-09T09:07:05.945Z,21.68
2022-10-09T09:12:34.606Z,21.88
2022-10-09T09:17:46.885Z,21.64
2022-10-09T09:22:50.305Z,22.14
2022-10-09T09:27:55.185Z,21.83
2022-10-09T09:33:18.847Z,22.09
2022-10-09T09:38:21.216Z,21.98
2022-10-09T09:43:25.463Z,22.22
2022-10-09T09:48:41.497Z,21.83
2022-10-09T09:53:50.198Z,22.10
2022-10-09T09:58:53.369Z,21.87
2022-10-09T10:04:00.019Z,22.21
2022-10-09T10:09:06.236Z,22.01
2022-10-09T10:14:09.439Z,21.90
2022-10-09T10:19:21.667Z,21.76
2022-10-09T10:24:27.941Z,21.86
2022-10-09T10:29:45.653Z,21.90
2022-10-09T10:34:52.599Z,21.44
2022-10-09T10:40:14.523Z,21.47
2022-10-09T10:45:19.484Z,21.65
2022-10-09T10:50:32.276Z,21.87
2022-10-09T10:55:37.282Z,21.55
2022-10-09T11:00:54.225Z,21.70
2022-10-09T11:06:17.849Z,22.03
2022-10-09T11:18:34.558Z,21.81
2022-10-09T11:23:50.059Z,21.42
2022-10-09T11:28:54.806Z,21.46
2022-10-09T11:34:03.610Z,21.29
2022-10-09T11:39:13.411Z,21.25
2022-10-09T11:44:19.679Z,21.43
2022-10-09T11:49:26.258Z,21.49
2022-10-09T11:54:29.055Z,21.30
2022-10-09T11:59:34.019Z,21.54
2022-10-09T12:04:54.445Z,21.26
2022-10-09T12:10:04.383Z,21.44
2022-10-09T12:15:27.289Z,21.34
2022-10-09T12:20:32.463Z,21.41
2022-10-09T12:25:41.025Z,21.46
2022-10-09T12:30:48.525Z,21.55
2022-10-09T12:36:12.997Z,21.69
2022-10-09T12:41:43.475Z,21.77
2022-10-09T12:46:45.856Z,21.74
2022-10-09T12:51:55.381Z,21.80
2022-10-09T12:57:04.236Z,21.86
2022-10-09T13:02:11.288Z,21.87
2022-10-09T13:07:19.851Z,21.88
2022-10-09T13:12:28.559Z,21.99
2022-10-09T13:17:33.671Z,21.98
2022-10-09T13:22:36.149Z,22.08
2022-10-09T13:27:39.410Z,21.87
2022-10-09T13:32:42.335Z,22.02
2022-10-09T13:37:45.421Z,21.73
2022-10-09T13:42:51.548Z,21.61
2022-10-09T13:47:54.975Z,21.57
2022-10-09T13:52:57.214Z,21.64
2022-10-09T13:58:01.694Z,21.77
2022-10-09T14:03:06.401Z,21.75
2022-10-09T14:08:10.096Z,21.56
2022-10-09T14:13:14.681Z,21.35
2022-10-09T14:18:29.909Z,21.27
2022-10-09T14:23:32.192Z,21.33
2022-10-09T14:28:35.456Z,21.46
2022-10-09T14:33:37.809Z,21.49
2022-10-09T14:38:41.133Z,21.07
2022-10-09T14:43:45.605Z,21.09
2022-10-09T14:48:50.544Z,20.66
2022-10-09T14:53:58.258Z,20.42
2022-10-09T14:59:05.535Z,20.47
2022-10-09T15:04:09.155Z,20.28
2022-10-09T15:09:11.471Z,20.30
2022-10-09T15:20:36.859Z,20.42
2022-10-09T15:25:40.436Z,20.24
2022-10-09T15:30:48.791Z,20.13
2022-10-09T15:35:55.672Z,20.04
2022-10-09T15:40:57.896Z,19.87
2022-10-09T15:52:54.873Z,19.71
2022-10-09T15:57:57.083Z,19.54
2022-10-09T16:03:00.353Z,19.49
2022-10-09T16:08:02.567Z,19.58
2022-10-09T16:13:07.038Z,19.49
2022-10-09T16:18:10.408Z,19.29
2022-10-09T16:23:14.047Z,19.12
2022-10-09T16:28:19.311Z,19.07
2022-10-09T16:33:21.943Z,19.28
2022-10-09T16:38:25.021Z,19.14
2022-10-09T16:43:30.147Z,19.02
2022-10-09T16:48:37.130Z,19.31
2022-10-09T16:53:39.922Z,19.29
2022-10-09T16:58:42.928Z,19.26
2022-10-09T17:03:46.386Z,19.22
2022-10-09T17:08:53.627Z,19.31
2022-10-09T17:14:01.162Z,19.06
2022-10-09T17:19:07.090Z,19.00
2022-10-09T17:24:13.009Z,18.94
2022-10-09T17:29:16.284Z,18.79
2022-10-09T17:34:23.034Z,18.75
2022-10-09T17:39:28.455Z,18.72
2022-10-09T17:44:32.091Z,18.66
2022-10-09T17:49:44.278Z,18.71
2022-10-09T17:54:46.842Z,18.62
2022-10-09T17:59:49.433Z,18.74
2022-10-09T18:04:57.341Z,18.66
2022-10-09T18:10:03.799Z,18.63
2022-10-09T18:15:13.861Z,18.74
2022-10-09T18:20:17.006Z,18.64
2022-10-09T18:25:19.369Z,18.63
2022-10-09T18:30:23.450Z,18.64
2022-10-09T18:35:30.411Z,18.75
2022-10-09T18:40:39.795Z,18.76
2022-10-09T18:45:46.054Z,18.94
2022-10-09T18:50:48.737Z,18.73
2022-10-09T18:55:53.132Z,18.76
2022-10-09T19:00:55.420Z,18.62
2022-10-09T19:05:57.823Z,18.89
2022-10-09T19:11:00.239Z,18.89
2022-10-09T19:16:06.303Z,18.81
2022-10-09T19:21:16.063Z,18.86
2022-10-09T19:26:19.917Z,18.78
2022-10-09T19:31:28.102Z,18.88
2022-10-09T19:36:34.538Z,18.64
2022-10-09T19:41:37.990Z,18.62
2022-10-09T19:46:49.937Z,18.52
2022-10-09T19:51:52.148Z,18.56
2022-10-09T19:56:54.429Z,18.72
2022-10-09T20:01:57.750Z,18.92
2022-10-09T20:07:00.039Z,18.69
2022-10-09T20:12:04.300Z,18.72
2022-10-09T20:17:10.638Z,18.53
2022-10-09T20:22:12.927Z,18.52
2022-10-09T20:27:15.337Z,18.48
2022-10-09T20:32:21.594Z,18.65
2022-10-09T20:37:23.966Z,18.49
2022-10-09T20:42:29.088Z,18.49
2022-10-09T20:47:31.409Z,18.71
2022-10-09T20:52:33.770Z,18.55
2022-10-09T20:57:36.896Z,18.72
2022-10-09T21:02:39.175Z,18.67
2022-10-09T21:07:44.227Z,18.92
2022-10-09T21:12:47.501Z,18.82
2022-10-09T21:17:50.025Z,18.54
2022-10-09T21:22:58.084Z,18.41
2022-10-09T21:28:03.757Z,18.43
2022-10-09T21:33:06.819Z,18.55
2022-10-09T21:38:10.614Z,18.86
2022-10-09T21:43:16.601Z,18.65
2022-10-09T21:48:19.646Z,18.56
2022-10-09T21:53:21.848Z,18.48
2022-10-09T21:58:24.120Z,18.69
2022-10-09T22:03:35.782Z,18.56
2022-10-09T22:08:43.635Z,18.60
2022-10-09T22:13:48.061Z,18.69
2022-10-09T22:18:50.361Z,18.78
2022-10-09T22:23:56.607Z,18.62
2022-10-09T22:28:58.989Z,18.62
2022-10-09T22:34:01.704Z,18.39
2022-10-09T22:39:05.674Z,18.49
2022-10-09T22:44:19.292Z,18.56
2022-10-09T22:49:21.562Z,18.33
2022-10-09T22:54:26.232Z,18.30
2022-10-09T22:59:28.707Z,18.22
2022-10-09T23:04:31.846Z,18.19
2022-10-09T23:09:46.861Z,18.18
2022-10-09T23:14:52.032Z,18.19
2022-10-09T23:19:55.615Z,18.24
2022-10-09T23:25:00.500Z,18.16
2022-10-09T23:30:02.817Z,18.16
2022-10-09T23:35:09.555Z,18.15
2022-10-09T23:40:13.353Z,18.12
2022-10-09T23:45:18.617Z,18.13
2022-10-09T23:50:20.864Z,18.11
2022-10-09T23:55:25.642Z,18.06
